Time,TemperatureF,DewpointF,PressureIn,WindDirection,WindDirectionDegrees,WindSpeedMPH,WindSpeedGustMPH,Humidity,HourlyPrecipIn,Conditions,Clouds,dailyrainin,SolarRadiationWatts/m^2,SoftwareType,DateUTC
2013-06-08 00:02:00,52.0,26.0,-100.00,NNW,340,3.0,4.0,36,0.00,,,0.00,0.000000,,2013-06-08 06:02:00,
2013-06-08 00:12:00,52.0,26.0,-100.00,NNW,340,3.0,4.0,36,0.00,,,0.00,0.000000,,2013-06-08 06:12:00,
2013-06-08 00:22:00,52.0,26.0,-100.00,NNW,340,3.0,4.0,36,0.00,,,0.00,0.000000,,2013-06-08 06:22:00,
2013-06-08 00:42:00,51.0,26.0,-100.00,NNE,33,2.0,4.0,38,0.00,,,0.00,0.000000,,2013-06-08 06:42:00,
2013-06-08 00:52:00,51.0,26.0,-100.00,NNE,33,2.0,4.0,38,0.00,,,0.00,0.000000,,2013-06-08 06:52:00,
2013-06-08 01:02:00,51.0,26.0,-100.00,NNE,33,2.0,4.0,38,0.00,,,0.00,0.000000,,2013-06-08 07:02:00,
2013-06-08 01:12:00,51.0,26.0,-100.00,NNE,33,2.0,4.0,38,0.00,,,0.00,0.000000,,2013-06-08 07:12:00,
2013-06-08 01:21:00,51.0,26.0,-100.00,NNE,33,2.0,4.0,38,0.00,,,0.00,0.000000,,2013-06-08 07:21:00,
2013-06-08 01:52:00,51.0,26.0,-100.00,ENE,63,3.0,3.0,37,0.00,,,0.00,0.000000,,2013-06-08 07:52:00,
2013-06-08 02:02:00,51.0,26.0,-100.00,ENE,63,3.0,3.0,37,0.00,,,0.00,0.000000,,2013-06-08 08:02:00,
2013-06-08 02:12:00,51.0,26.0,-100.00,ENE,63,3.0,3.0,37,0.00,,,0.00,0.000000,,2013-06-08 08:12:00,
2013-06-08 02:22:00,51.0,26.0,-100.00,ENE,63,3.0,3.0,37,0.00,,,0.00,0.000000,,2013-06-08 08:22:00,
2013-06-08 02:42:00,50.0,26.0,-100.00,NW,322,2.0,5.0,39,0.00,,,-99.99,0.000000,,2013-06-08 08:42:00,
2013-06-08 02:53:00,50.0,26.0,-100.00,NW,322,2.0,5.0,39,0.00,,,-99.99,0.000000,,2013-06-08 08:53:00,
2013-06-08 03:02:00,50.0,26.0,-100.00,NW,322,2.0,5.0,39,0.00,,,-99.99,0.000000,,2013-06-08 09:02:00,
2013-06-08 03:12:00,50.0,26.0,-100.00,NW,322,2.0,5.0,39,0.00,,,-99.99,0.000000,,2013-06-08 09:12:00,
2013-06-08 03:22:00,50.0,26.0,-100.00,NW,322,2.0,5.0,39,0.00,,,-99.99,0.000000,,2013-06-08 09:22:00,
2013-06-08 03:53:00,48.0,27.0,-100.00,NE,46,2.0,3.0,43,0.00,,,0.00,0.000000,,2013-06-08 09:53:00,
2013-06-08 04:02:00,48.0,27.0,-100.00,NE,46,2.0,3.0,43,0.00,,,0.00,0.000000,,2013-06-08 10:02:00,
2013-06-08 04:12:00,48.0,27.0,-100.00,NE,46,2.0,3.0,43,0.00,,,0.00,0.000000,,2013-06-08 10:12:00,
2013-06-08 04:22:00,48.0,27.0,-100.00,NE,46,2.0,3.0,43,0.00,,,0.00,0.000000,,2013-06-08 10:22:00,
2013-06-08 04:53:00,45.0,28.0,-100.00,North,3,2.0,5.0,51,0.00,,,0.00,0.000000,,2013-06-08 10:53:00,
2013-06-08 05:02:00,45.0,28.0,-100.00,North,3,2.0,5.0,51,0.00,,,0.00,0.000000,,2013-06-08 11:02:00,
2013-06-08 05:12:00,45.0,28.0,-100.00,North,3,2.0,5.0,51,0.00,,,0.00,0.000000,,2013-06-08 11:12:00,
2013-06-08 05:22:00,45.0,28.0,-100.00,North,3,2.0,5.0,51,0.00,,,0.00,0.000000,,2013-06-08 11:22:00,
2013-06-08 05:52:00,46.0,28.0,-100.00,WNW,293,4.0,5.0,50,0.00,,,0.00,0.000000,,2013-06-08 11:52:00,
2013-06-08 06:02:00,46.0,28.0,-100.00,WNW,293,4.0,5.0,50,0.00,,,0.00,0.000000,,2013-06-08 12:02:00,
2013-06-08 06:12:00,46.0,28.0,-100.00,WNW,293,4.0,5.0,50,0.00,,,0.00,0.000000,,2013-06-08 12:12:00,
2013-06-08 06:22:00,46.0,28.0,-100.00,WNW,293,4.0,5.0,50,0.00,,,0.00,0.000000,,2013-06-08 12:22:00,
2013-06-08 06:52:00,50.0,29.0,-100.00,NNW,338,4.0,7.0,45,0.00,,,0.00,1.000000,,2013-06-08 12:52:00,
2013-06-08 07:02:00,50.0,29.0,-100.00,NNW,338,4.0,7.0,45,0.00,,,0.00,1.000000,,2013-06-08 13:02:00,
2013-06-08 07:12:00,50.0,29.0,-100.00,NNW,338,4.0,7.0,45,0.00,,,0.00,1.000000,,2013-06-08 13:12:00,
2013-06-08 07:22:00,50.0,29.0,-100.00,NNW,338,4.0,7.0,45,0.00,,,0.00,1.000000,,2013-06-08 13:22:00,
2013-06-08 07:52:00,53.0,33.0,-100.00,NNW,335,4.0,5.0,47,0.00,,,0.00,51.000000,,2013-06-08 13:52:00,
2013-06-08 08:02:00,53.0,33.0,-100.00,NNW,335,4.0,5.0,47,0.00,,,0.00,51.000000,,2013-06-08 14:02:00,
2013-06-08 08:12:00,53.0,33.0,-100.00,NNW,335,4.0,5.0,47,0.00,,,0.00,51.000000,,2013-06-08 14:12:00,
2013-06-08 08:21:00,53.0,33.0,-100.00,NNW,335,4.0,5.0,47,0.00,,,0.00,51.000000,,2013-06-08 14:21:00,
2013-06-08 08:52:00,63.0,36.0,-100.00,North,3,3.0,5.0,37,0.00,,,0.00,273.000000,,2013-06-08 14:52:00,
2013-06-08 09:02:00,63.0,36.0,-100.00,North,3,3.0,5.0,37,0.00,,,0.00,273.000000,,2013-06-08 15:02:00,
2013-06-08 09:12:00,63.0,36.0,-100.00,North,3,3.0,5.0,37,0.00,,,0.00,273.000000,,2013-06-08 15:12:00,
2013-06-08 09:22:00,63.0,36.0,-100.00,North,3,3.0,5.0,37,0.00,,,0.00,273.000000,,2013-06-08 15:22:00,
2013-06-08 09:43:00,69.0,35.0,-100.00,North,358,8.0,12.0,28,0.00,,,0.00,486.000000,,2013-06-08 15:43:00,
2013-06-08 09:53:00,69.0,35.0,-100.00,North,358,8.0,12.0,28,0.00,,,0.00,486.000000,,2013-06-08 15:53:00,
2013-06-08 10:03:00,69.0,35.0,-100.00,North,358,8.0,12.0,28,0.00,,,0.00,486.000000,,2013-06-08 16:03:00,
2013-06-08 10:12:00,69.0,35.0,-100.00,North,358,8.0,12.0,28,0.00,,,0.00,486.000000,,2013-06-08 16:12:00,
2013-06-08 10:22:00,69.0,35.0,-100.00,North,358,8.0,12.0,28,0.00,,,0.00,486.000000,,2013-06-08 16:22:00,
2013-06-08 10:53:00,71.0,33.0,-100.00,NW,325,10.0,22.0,25,0.00,,,0.00,685.000000,,2013-06-08 16:53:00,
2013-06-08 11:02:00,71.0,33.0,-100.00,NW,325,10.0,22.0,25,0.00,,,0.00,685.000000,,2013-06-08 17:02:00,
2013-06-08 11:12:00,71.0,33.0,-100.00,NW,325,10.0,22.0,25,0.00,,,0.00,685.000000,,2013-06-08 17:12:00,
2013-06-08 11:22:00,71.0,33.0,-100.00,NW,325,10.0,22.0,25,0.00,,,0.00,685.000000,,2013-06-08 17:22:00,
2013-06-08 11:52:00,72.0,31.0,-100.00,WNW,303,11.0,21.0,22,0.00,,,0.00,858.000000,,2013-06-08 17:52:00,
2013-06-08 12:02:00,72.0,31.0,-100.00,WNW,303,11.0,21.0,22,0.00,,,0.00,858.000000,,2013-06-08 18:02:00,
2013-06-08 12:12:00,72.0,31.0,-100.00,WNW,303,11.0,21.0,22,0.00,,,0.00,858.000000,,2013-06-08 18:12:00,
2013-06-08 12:22:00,72.0,31.0,-100.00,WNW,303,11.0,21.0,22,0.00,,,0.00,858.000000,,2013-06-08 18:22:00,
2013-06-08 12:52:00,74.0,30.0,-100.00,WNW,299,9.0,19.0,20,0.00,,,0.00,987.000000,,2013-06-08 18:52:00,
2013-06-08 13:02:00,74.0,30.0,-100.00,WNW,299,9.0,19.0,20,0.00,,,0.00,987.000000,,2013-06-08 19:02:00,
2013-06-08 13:12:00,74.0,30.0,-100.00,WNW,299,9.0,19.0,20,0.00,,,0.00,987.000000,,2013-06-08 19:12:00,
2013-06-08 13:22:00,74.0,30.0,-100.00,WNW,299,9.0,19.0,20,0.00,,,0.00,987.000000,,2013-06-08 19:22:00,
2013-06-08 13:53:00,76.0,31.0,-100.00,NNW,346,10.0,19.0,19,0.00,,,0.00,1057.000000,,2013-06-08 19:53:00,
2013-06-08 14:02:00,76.0,31.0,-100.00,NNW,346,10.0,19.0,19,0.00,,,0.00,1057.000000,,2013-06-08 20:02:00,
2013-06-08 14:12:00,76.0,31.0,-100.00,NNW,346,10.0,19.0,19,0.00,,,0.00,1057.000000,,2013-06-08 20:12:00,
2013-06-08 14:22:00,76.0,31.0,-100.00,NNW,346,10.0,19.0,19,0.00,,,0.00,1057.000000,,2013-06-08 20:22:00,
2013-06-08 14:52:00,77.0,27.0,-100.00,NW,321,13.0,24.0,16,0.00,,,0.00,1077.000000,,2013-06-08 20:52:00,
2013-06-08 15:02:00,77.0,27.0,-100.00,NW,321,13.0,24.0,16,0.00,,,0.00,1077.000000,,2013-06-08 21:02:00,
2013-06-08 15:12:00,77.0,27.0,-100.00,NW,321,13.0,24.0,16,0.00,,,0.00,1077.000000,,2013-06-08 21:12:00,
2013-06-08 15:22:00,77.0,27.0,-100.00,NW,321,13.0,24.0,16,0.00,,,0.00,1077.000000,,2013-06-08 21:22:00,
2013-06-08 15:43:00,78.0,23.0,-100.00,NW,312,13.0,24.0,13,0.00,,,0.00,1043.000000,,2013-06-08 21:43:00,
2013-06-08 15:53:00,78.0,23.0,-100.00,NW,312,13.0,24.0,13,0.00,,,0.00,1043.000000,,2013-06-08 21:53:00,
2013-06-08 16:02:00,78.0,23.0,-100.00,NW,312,13.0,24.0,13,0.00,,,0.00,1043.000000,,2013-06-08 22:02:00,
2013-06-08 16:12:00,78.0,23.0,-100.00,NW,312,13.0,24.0,13,0.00,,,0.00,1043.000000,,2013-06-08 22:12:00,
2013-06-08 16:22:00,78.0,23.0,-100.00,NW,312,13.0,24.0,13,0.00,,,0.00,1043.000000,,2013-06-08 22:22:00,
2013-06-08 16:52:00,78.0,23.0,-100.00,NNW,338,13.0,22.0,13,0.00,,,0.00,945.000000,,2013-06-08 22:52:00,
2013-06-08 17:02:00,78.0,23.0,-100.00,NNW,338,13.0,22.0,13,0.00,,,0.00,945.000000,,2013-06-08 23:02:00,
2013-06-08 17:12:00,78.0,23.0,-100.00,NNW,338,13.0,22.0,13,0.00,,,0.00,945.000000,,2013-06-08 23:12:00,
2013-06-08 17:22:00,78.0,23.0,-100.00,NNW,338,13.0,22.0,13,0.00,,,0.00,945.000000,,2013-06-08 23:22:00,
2013-06-08 17:52:00,78.0,25.0,-100.00,NNW,339,12.0,23.0,14,0.00,,,0.00,787.000000,,2013-06-08 23:52:00,
2013-06-08 18:02:00,78.0,25.0,-100.00,NNW,339,12.0,23.0,14,0.00,,,0.00,787.000000,,2013-06-09 00:02:00,
2013-06-08 18:12:00,78.0,25.0,-100.00,NNW,339,12.0,23.0,14,0.00,,,0.00,787.000000,,2013-06-09 00:12:00,
2013-06-08 18:22:00,78.0,25.0,-100.00,NNW,339,12.0,23.0,14,0.00,,,0.00,787.000000,,2013-06-09 00:22:00,
2013-06-08 18:52:00,78.0,25.0,-100.00,NNW,332,11.0,23.0,14,0.00,,,0.00,592.000000,,2013-06-09 00:52:00,
2013-06-08 19:02:00,78.0,25.0,-100.00,NNW,332,11.0,23.0,14,0.00,,,0.00,592.000000,,2013-06-09 01:02:00,
2013-06-08 19:12:00,78.0,25.0,-100.00,NNW,332,11.0,23.0,14,0.00,,,0.00,592.000000,,2013-06-09 01:12:00,
2013-06-08 19:22:00,78.0,25.0,-100.00,NNW,332,11.0,23.0,14,0.00,,,0.00,592.000000,,2013-06-09 01:22:00,
2013-06-08 19:42:00,76.0,22.0,-100.00,NNW,332,11.0,23.0,13,0.00,,,0.00,381.000000,,2013-06-09 01:42:00,
2013-06-08 19:52:00,76.0,22.0,-100.00,NNW,332,11.0,23.0,13,0.00,,,0.00,381.000000,,2013-06-09 01:52:00,
2013-06-08 20:02:00,76.0,22.0,-100.00,NNW,332,11.0,23.0,13,0.00,,,0.00,381.000000,,2013-06-09 02:02:00,
2013-06-08 20:12:00,76.0,22.0,-100.00,NNW,332,11.0,23.0,13,0.00,,,0.00,381.000000,,2013-06-09 02:12:00,
2013-06-08 20:21:00,76.0,22.0,-100.00,NNW,332,11.0,23.0,13,0.00,,,0.00,381.000000,,2013-06-09 02:21:00,
2013-06-08 20:52:00,73.0,23.0,-100.00,NW,320,8.0,20.0,15,0.00,,,0.00,175.000000,,2013-06-09 02:52:00,
2013-06-08 21:02:00,73.0,23.0,-100.00,NW,320,8.0,20.0,15,0.00,,,0.00,175.000000,,2013-06-09 03:02:00,
2013-06-08 21:12:00,73.0,23.0,-100.00,NW,320,8.0,20.0,15,0.00,,,0.00,175.000000,,2013-06-09 03:12:00,
2013-06-08 21:22:00,73.0,23.0,-100.00,NW,320,8.0,20.0,15,0.00,,,0.00,175.000000,,2013-06-09 03:22:00,
2013-06-08 21:53:00,66.0,23.0,-100.00,NW,312,7.0,12.0,19,0.00,,,0.00,19.000000,,2013-06-09 03:53:00,
2013-06-08 22:02:00,66.0,23.0,-100.00,NW,312,7.0,12.0,19,0.00,,,0.00,19.000000,,2013-06-09 04:02:00,
2013-06-08 22:12:00,66.0,23.0,-100.00,NW,312,7.0,12.0,19,0.00,,,0.00,19.000000,,2013-06-09 04:12:00,
2013-06-08 22:22:00,66.0,23.0,-100.00,NW,312,7.0,12.0,19,0.00,,,0.00,19.000000,,2013-06-09 04:22:00,
2013-06-08 22:53:00,62.0,22.0,-100.00,NW,316,6.0,10.0,21,0.00,,,0.00,0.000000,,2013-06-09 04:53:00,
2013-06-08 23:02:00,62.0,22.0,-100.00,NW,316,6.0,10.0,21,0.00,,,0.00,0.000000,,2013-06-09 05:02:00,
2013-06-08 23:12:00,62.0,22.0,-100.00,NW,316,6.0,10.0,21,0.00,,,0.00,0.000000,,2013-06-09 05:12:00,
2013-06-08 23:22:00,62.0,22.0,-100.00,NW,316,6.0,10.0,21,0.00,,,0.00,0.000000,,2013-06-09 05:22:00,
2013-06-08 23:52:00,62.0,20.0,-100.00,NW,323,7.0,10.0,20,0.00,,,0.00,0.000000,,2013-06-09 05:52:00,